This is the latest recevied weather packets stored in our database for station/object K9RCP-20. If no packets are shown the sender has not sent any weather packets the latest 10 day(s).
| Time | Temp. | Humidity | Pressure | Rain* | Wind** | Luminosity | Snow |
|---|---|---|---|---|---|---|---|
| 1778258204 | 12.78° C | 73% | 1018.9 hPa | 0 mm | - | 162 W/m² | - |
| 1778257902 | 12.22° C | 74% | 1018.7 hPa | 0 mm | - | 322 W/m² | - |
| 1778257597 | 12.22° C | 74% | 1018.8 hPa | 0 mm | - | 242 W/m² | - |
| 1778257295 | 12.22° C | 75% | 1018.6 hPa | 0 mm | - | 152 W/m² | - |
| 1778256992 | 12.22° C | 75% | 1018.7 hPa | 0 mm | - | 112 W/m² | - |
| 1778256689 | 12.22° C | 73% | 1018.6 hPa | 0 mm | - | 139 W/m² | - |
| 1778256387 | 12.22° C | 73% | 1018.4 hPa | 0 mm | - | 202 W/m² | - |
| 1778256084 | 12.22° C | 75% | 1018.4 hPa | 0 mm | - | 131 W/m² | - |
| 1778255776 | 12.22° C | 75% | 1018.8 hPa | 0 mm | - | 158 W/m² | - |
| 1778255473 | 12.22° C | 75% | 1018.5 hPa | 0 mm | - | 182 W/m² | - |
| 1778255170 | 11.67° C | 77% | 1018.5 hPa | 0 mm | - | 213 W/m² | - |
| 1778254867 | 12.22° C | 76% | 1018.5 hPa | 0 mm | - | 196 W/m² | - |
| 1778254563 | 12.22° C | 75% | 1018.3 hPa | 0 mm | - | 208 W/m² | - |
| 1778253349 | 10.56° C | 82% | 1018.5 hPa | 0 mm | - | 99 W/m² | - |
| 1778253046 | 10.56° C | 82% | 1018.4 hPa | 0 mm | - | 99 W/m² | - |
| 1778252743 | 10.56° C | 82% | 1018.4 hPa | 0 mm | - | 98 W/m² | - |
| 1778252438 | 10.56° C | 83% | 1018.4 hPa | 0 mm | - | 121 W/m² | - |
| 1778252130 | 10° C | 83% | 1018.2 hPa | 0 mm | - | 122 W/m² | - |
| 1778251826 | 10° C | 85% | 1018.3 hPa | 0 mm | - | 126 W/m² | - |
| 1778251524 | 10° C | 84% | 1018.5 hPa | 0 mm | - | 112 W/m² | - |
| 1778251222 | 10.56° C | 84% | 1018.5 hPa | 0 mm | - | 94 W/m² | - |
| 1778250919 | 10° C | 83% | 1018.5 hPa | 0 mm | - | 83 W/m² | - |
| 1778250615 | 10° C | 84% | 1018.3 hPa | 0 mm | - | 76 W/m² | - |
| 1778250312 | 10° C | 84% | 1018.3 hPa | 0 mm | - | 74 W/m² | - |
| 1778250009 | 10° C | 84% | 1018.3 hPa | 0 mm | - | 81 W/m² | - |
* Rain latest hour (hover to see other rain measurements)
** Current wind speed in m/s (hover to see current wind gust speed)